createdAt,value
2018-04-07T00:02:28.377Z,4.73
2018-04-07T00:04:56.054Z,5.37
2018-04-07T00:07:23.825Z,5.13
2018-04-07T00:09:51.477Z,4.80
2018-04-07T00:12:19.134Z,5.27
2018-04-07T00:14:46.751Z,4.87
2018-04-07T00:17:14.447Z,5.03
2018-04-07T00:19:42.114Z,5.30
2018-04-07T00:22:09.788Z,5.00
2018-04-07T00:24:37.537Z,5.77
2018-04-07T00:27:05.151Z,5.65
2018-04-07T00:29:33.526Z,5.27
2018-04-07T00:32:01.934Z,5.40
2018-04-07T00:34:29.621Z,5.97
2018-04-07T00:36:57.385Z,6.40
2018-04-07T00:39:24.994Z,5.80
2018-04-07T00:41:53.496Z,5.85
2018-04-07T00:44:21.139Z,5.83
2018-04-07T00:46:49.570Z,5.90
2018-04-07T00:49:17.360Z,6.43
2018-04-07T00:51:44.985Z,6.00
2018-04-07T00:54:12.595Z,5.77
2018-04-07T00:56:41.032Z,6.28
2018-04-07T00:59:09.650Z,6.43
2018-04-07T01:01:37.299Z,6.53
2018-04-07T01:04:04.950Z,6.60
2018-04-07T01:06:32.590Z,6.67
2018-04-07T01:09:00.295Z,6.67
2018-04-07T01:11:27.954Z,7.10
2018-04-07T01:13:55.606Z,6.62
2018-04-07T01:16:23.229Z,6.43
2018-04-07T01:18:50.942Z,7.37
2018-04-07T01:21:19.110Z,6.80
2018-04-07T01:23:46.755Z,7.23
2018-04-07T01:26:14.830Z,7.07
2018-04-07T01:28:42.627Z,7.03
2018-04-07T01:31:10.245Z,6.67
2018-04-07T01:33:38.023Z,6.73
2018-04-07T01:36:05.650Z,6.27
2018-04-07T01:38:33.314Z,6.87
2018-04-07T01:41:00.970Z,6.50
2018-04-07T01:43:29.187Z,6.73
2018-04-07T01:45:56.808Z,7.10
2018-04-07T01:48:25.228Z,6.87
2018-04-07T01:50:53.643Z,6.70
2018-04-07T01:53:21.311Z,6.57
2018-04-07T01:55:49.704Z,6.60
2018-04-07T01:58:17.531Z,7.10
2018-04-07T02:00:45.191Z,7.03
2018-04-07T02:03:12.803Z,7.07
2018-04-07T02:05:40.443Z,6.77
2018-04-07T02:08:08.874Z,6.70
2018-04-07T02:10:36.546Z,6.50
2018-04-07T02:13:04.542Z,6.50
2018-04-07T02:15:32.150Z,6.53
2018-04-07T02:18:00.549Z,6.60
2018-04-07T02:20:28.226Z,6.80
2018-04-07T02:22:55.978Z,7.07
2018-04-07T02:25:23.587Z,6.63
2018-04-07T02:27:51.999Z,6.60
2018-04-07T02:30:19.658Z,6.90
2018-04-07T02:32:47.317Z,7.57
2018-04-07T02:35:14.946Z,7.22
2018-04-07T02:37:42.566Z,6.60
2018-04-07T02:40:10.224Z,7.13
2018-04-07T02:42:37.920Z,6.73
2018-04-07T02:45:07.039Z,6.50
2018-04-07T02:47:35.483Z,7.30
2018-04-07T02:50:03.143Z,6.62
2018-04-07T02:52:30.831Z,6.77
2018-04-07T02:54:58.446Z,6.23
2018-04-07T02:57:26.105Z,6.30
2018-04-07T02:59:53.759Z,6.63
2018-04-07T03:02:21.420Z,6.57
2018-04-07T03:04:49.038Z,6.30
2018-04-07T03:07:16.871Z,6.33
2018-04-07T03:09:44.527Z,6.67
2018-04-07T03:12:12.158Z,6.50
2018-04-07T03:14:40.562Z,6.90
2018-04-07T03:17:08.170Z,6.00
2018-04-07T03:19:35.815Z,6.62
2018-04-07T03:22:03.423Z,5.70
2018-04-07T03:24:31.086Z,5.90
2018-04-07T03:26:58.708Z,6.07
2018-04-07T03:29:26.355Z,5.97
2018-04-07T03:31:53.994Z,5.73
2018-04-07T03:34:21.602Z,6.40
2018-04-07T03:36:49.246Z,6.53
2018-04-07T03:39:16.859Z,5.70
2018-04-07T03:41:44.566Z,6.30
2018-04-07T03:44:12.234Z,6.23
2018-04-07T03:46:39.860Z,6.40
2018-04-07T03:49:07.470Z,6.03
2018-04-07T03:51:35.110Z,6.07
2018-04-07T03:54:02.771Z,6.13
2018-04-07T03:56:30.451Z,5.62
2018-04-07T03:58:59.110Z,6.20
2018-04-07T04:01:26.763Z,6.17
2018-04-07T04:03:54.407Z,6.25
2018-04-07T04:06:22.096Z,5.70
2018-04-07T04:08:49.775Z,5.85
2018-04-07T04:11:17.547Z,5.67
2018-04-07T04:13:45.192Z,5.57
2018-04-07T04:16:12.807Z,5.47
2018-04-07T04:18:41.218Z,6.00
2018-04-07T04:21:08.831Z,5.17
2018-04-07T04:23:36.479Z,5.53
2018-04-07T04:26:04.086Z,5.53
2018-04-07T04:28:32.510Z,4.87
2018-04-07T04:31:00.110Z,5.53
2018-04-07T04:33:28.528Z,5.43
2018-04-07T04:35:56.180Z,5.30
2018-04-07T04:38:23.808Z,5.73
2018-04-07T04:40:52.231Z,5.33
2018-04-07T04:43:19.844Z,4.80
2018-04-07T04:45:49.147Z,5.83
2018-04-07T04:48:16.839Z,6.03
2018-04-07T04:50:44.506Z,5.50
2018-04-07T04:53:12.111Z,5.10
2018-04-07T04:55:39.854Z,5.30
2018-04-07T04:58:07.463Z,5.93
2018-04-07T05:00:35.838Z,5.57
2018-04-07T05:03:04.396Z,5.23
2018-04-07T05:05:32.039Z,5.40
2018-04-07T05:07:59.714Z,5.53
2018-04-07T05:10:27.361Z,5.53
2018-04-07T05:12:54.974Z,5.53
2018-04-07T05:15:23.391Z,5.43
2018-04-07T05:17:51.079Z,5.07
2018-04-07T05:20:18.731Z,5.40
2018-04-07T05:22:46.343Z,4.63
2018-04-07T05:25:15.694Z,5.33
2018-04-07T05:27:43.332Z,5.12
2018-04-07T05:30:10.947Z,5.30
2018-04-07T05:32:38.825Z,5.50
2018-04-07T05:35:07.362Z,5.63
2018-04-07T05:37:35.024Z,5.10
2018-04-07T05:40:02.675Z,5.53
2018-04-07T05:42:30.315Z,5.20
2018-04-07T05:44:57.990Z,5.60
2018-04-07T05:47:25.615Z,5.15
2018-04-07T05:49:55.011Z,5.50
2018-04-07T05:52:22.671Z,5.23
2018-04-07T05:54:50.278Z,5.37
2018-04-07T05:57:18.377Z,5.20
2018-04-07T05:59:46.035Z,4.90
2018-04-07T06:02:13.643Z,5.40
2018-04-07T06:04:42.054Z,5.10
2018-04-07T06:07:09.839Z,4.97
2018-04-07T06:09:37.500Z,5.53
2018-04-07T06:12:05.171Z,5.10
2018-04-07T06:14:32.834Z,5.10
2018-04-07T06:17:00.517Z,5.17
2018-04-07T06:19:28.179Z,4.73
2018-04-07T06:21:55.790Z,5.10
2018-04-07T06:24:23.415Z,5.40
2018-04-07T06:26:51.147Z,5.47
2018-04-07T06:29:18.782Z,5.47
2018-04-07T06:31:46.434Z,5.40
2018-04-07T06:34:14.125Z,5.27
2018-04-07T06:36:41.891Z,5.37
2018-04-07T06:39:09.503Z,5.00
2018-04-07T06:41:37.948Z,5.12
2018-04-07T06:44:05.627Z,5.50
2018-04-07T06:46:33.274Z,5.55
2018-04-07T06:49:00.925Z,5.60
2018-04-07T06:51:28.583Z,5.50
2018-04-07T06:53:56.254Z,5.57
2018-04-07T06:56:23.872Z,4.97
2018-04-07T06:58:52.420Z,5.20
2018-04-07T07:01:20.174Z,5.10
2018-04-07T07:03:47.853Z,5.10
2018-04-07T07:06:15.478Z,5.43
2018-04-07T07:08:43.141Z,5.43
2018-04-07T07:11:10.757Z,5.10
2018-04-07T07:13:40.138Z,6.17
2018-04-07T07:16:07.771Z,4.93
2018-04-07T07:18:35.426Z,5.40
2018-04-07T07:21:03.596Z,5.10
2018-04-07T07:23:31.378Z,5.87
2018-04-07T07:25:58.999Z,5.13
2018-04-07T07:28:26.637Z,5.60
2018-04-07T07:30:55.173Z,5.77
2018-04-07T07:33:22.794Z,5.60
2018-04-07T07:35:51.316Z,5.80
2018-04-07T07:38:20.575Z,6.00
2018-04-07T07:40:48.296Z,5.83
2018-04-07T07:43:15.913Z,5.60
2018-04-07T07:45:43.602Z,5.40
2018-04-07T07:48:11.256Z,5.93
2018-04-07T07:50:38.942Z,5.30
2018-04-07T07:53:06.587Z,5.60
2018-04-07T07:55:34.205Z,6.40
2018-04-07T07:58:02.629Z,6.07
2018-04-07T08:00:30.237Z,5.97
2018-04-07T08:02:59.127Z,5.57
2018-04-07T08:05:27.520Z,4.97
2018-04-07T08:07:55.270Z,5.63
2018-04-07T08:10:22.919Z,5.43
2018-04-07T08:12:50.578Z,5.97
2018-04-07T08:15:18.235Z,5.50
2018-04-07T08:17:45.856Z,5.65
2018-04-07T08:20:13.511Z,5.43
2018-04-07T08:22:41.179Z,5.60
2018-04-07T08:25:08.790Z,6.20
2018-04-07T08:27:36.457Z,5.50
2018-04-07T08:30:04.085Z,5.67
2018-04-07T08:32:31.746Z,5.40
2018-04-07T08:34:59.367Z,5.20
2018-04-07T08:37:27.777Z,5.30
2018-04-07T08:39:55.489Z,5.53
2018-04-07T08:42:23.147Z,5.80
2018-04-07T08:44:50.758Z,5.93
2018-04-07T08:47:18.465Z,5.43
2018-04-07T08:49:46.117Z,5.73
2018-04-07T08:52:13.760Z,5.30
2018-04-07T08:54:41.419Z,5.30
2018-04-07T08:57:09.091Z,5.13
2018-04-07T08:59:36.735Z,5.33
2018-04-07T09:02:04.415Z,5.25
2018-04-07T09:04:32.039Z,5.00
2018-04-07T09:06:59.686Z,5.53
2018-04-07T09:09:28.231Z,5.70
2018-04-07T09:11:55.842Z,5.37
2018-04-07T09:14:23.548Z,5.20
2018-04-07T09:16:51.169Z,5.47
2018-04-07T09:19:18.815Z,5.40
2018-04-07T09:21:46.455Z,5.23
2018-04-07T09:24:14.122Z,5.50
2018-04-07T09:26:41.734Z,5.43
2018-04-07T09:29:09.439Z,5.80
2018-04-07T09:31:39.605Z,5.65
2018-04-07T09:34:07.423Z,5.40
2018-04-07T09:36:35.123Z,6.07
2018-04-07T09:39:04.378Z,5.30
2018-04-07T09:41:32.043Z,5.50
2018-04-07T09:43:59.792Z,5.87
2018-04-07T09:46:27.458Z,5.67
2018-04-07T09:48:55.095Z,5.30
2018-04-07T09:51:24.399Z,5.50
2018-04-07T09:53:52.508Z,5.03
2018-04-07T09:56:20.175Z,5.53
2018-04-07T09:58:47.939Z,5.03
2018-04-07T10:01:15.578Z,5.27
2018-04-07T10:03:43.289Z,5.28
2018-04-07T10:06:11.685Z,5.00
2018-04-07T10:08:39.402Z,5.20
2018-04-07T10:11:07.055Z,4.77
2018-04-07T10:13:34.753Z,5.00
2018-04-07T10:16:03.213Z,4.80
2018-04-07T10:18:30.835Z,5.10
2018-04-07T10:20:58.495Z,5.20
2018-04-07T10:23:26.108Z,5.40
2018-04-07T10:25:53.765Z,4.93
2018-04-07T10:28:21.390Z,4.77
2018-04-07T10:30:49.010Z,4.93
2018-04-07T10:33:17.430Z,4.70
2018-04-07T10:35:45.055Z,5.12
2018-04-07T10:38:13.430Z,5.23
2018-04-07T10:40:42.170Z,4.87
2018-04-07T10:43:09.850Z,5.10
2018-04-07T10:45:37.610Z,4.80
2018-04-07T10:48:06.154Z,5.20
2018-04-07T10:50:33.867Z,5.50
2018-04-07T10:53:01.608Z,5.37
2018-04-07T10:55:29.237Z,4.93
2018-04-07T10:57:56.933Z,5.70
2018-04-07T11:00:24.591Z,5.03
2018-04-07T11:02:52.360Z,5.50
2018-04-07T11:05:20.046Z,5.00
2018-04-07T11:07:47.658Z,5.97
2018-04-07T11:10:15.302Z,5.50
2018-04-07T11:12:43.730Z,5.75
2018-04-07T11:15:11.399Z,5.33
2018-04-07T11:17:39.060Z,5.80
2018-04-07T11:20:06.742Z,5.62
2018-04-07T11:22:34.394Z,4.77
2018-04-07T11:25:02.100Z,5.23
2018-04-07T11:27:30.502Z,4.90
2018-04-07T11:29:58.143Z,5.23
2018-04-07T11:32:26.563Z,4.90
2018-04-07T11:34:54.328Z,5.13
2018-04-07T11:37:22.007Z,5.43
2018-04-07T11:39:49.619Z,5.30
2018-04-07T11:42:17.286Z,5.37
2018-04-07T11:44:44.901Z,5.30
2018-04-07T11:47:12.561Z,5.23
2018-04-07T11:49:40.412Z,5.90
2018-04-07T11:52:09.106Z,5.37
2018-04-07T11:54:38.544Z,5.93
2018-04-07T11:57:06.998Z,6.30
2018-04-07T11:59:34.719Z,5.80
2018-04-07T12:02:02.382Z,5.83
2018-04-07T12:04:30.014Z,5.97
2018-04-07T12:06:58.398Z,5.70
2018-04-07T12:09:26.215Z,5.83
2018-04-07T12:11:53.895Z,5.50
2018-04-07T12:14:22.385Z,5.30
2018-04-07T12:16:51.594Z,5.30
2018-04-07T12:19:19.254Z,5.53
2018-04-07T12:21:46.979Z,6.03
2018-04-07T12:24:14.659Z,5.50
2018-04-07T12:26:42.275Z,5.37
2018-04-07T12:29:09.927Z,5.83
2018-04-07T12:31:37.622Z,5.73
2018-04-07T12:34:05.250Z,5.43
2018-04-07T12:36:33.076Z,5.37
2018-04-07T12:39:00.752Z,5.80
2018-04-07T12:41:28.481Z,6.30
2018-04-07T12:43:56.136Z,5.47
2018-04-07T12:46:23.766Z,6.00
2018-04-07T12:48:51.441Z,6.43
2018-04-07T12:51:19.136Z,6.50
2018-04-07T12:53:47.644Z,6.53
2018-04-07T12:56:16.106Z,6.50
2018-04-07T12:58:43.777Z,6.27
2018-04-07T13:01:11.464Z,6.50
2018-04-07T13:03:39.856Z,6.97
2018-04-07T13:06:08.381Z,6.40
2018-04-07T13:08:36.026Z,6.45
2018-04-07T13:11:03.651Z,6.50
2018-04-07T13:13:32.090Z,7.53
2018-04-07T13:16:00.665Z,7.27
2018-04-07T13:18:28.333Z,7.50
2018-04-07T13:20:55.946Z,7.53
2018-04-07T13:23:24.353Z,7.40
2018-04-07T13:25:52.034Z,8.10
2018-04-07T13:28:19.652Z,7.87
2018-04-07T13:30:48.182Z,7.77
2018-04-07T13:33:15.799Z,8.10
2018-04-07T13:35:44.926Z,7.65
2018-04-07T13:38:12.599Z,7.43
2018-04-07T13:40:40.252Z,7.90
2018-04-07T13:43:07.900Z,8.00
2018-04-07T13:45:35.691Z,8.63
2018-04-07T13:48:03.350Z,7.93
2018-04-07T13:50:31.024Z,8.70
2018-04-07T13:52:59.318Z,8.10
2018-04-07T13:55:28.439Z,8.03
2018-04-07T13:57:56.871Z,7.97
2018-04-07T14:00:24.595Z,8.40
2018-04-07T14:02:53.058Z,9.23
2018-04-07T14:05:21.599Z,8.43
2018-04-07T14:07:49.213Z,8.20
2018-04-07T14:10:17.623Z,9.27
2018-04-07T14:12:45.605Z,8.63
2018-04-07T14:15:13.387Z,8.95
2018-04-07T14:17:41.084Z,9.27
2018-04-07T14:20:09.652Z,9.30
2018-04-07T14:22:37.415Z,9.43
2018-04-07T14:25:05.100Z,9.00
2018-04-07T14:27:33.530Z,8.60
2018-04-07T14:30:01.171Z,9.03
2018-04-07T14:32:28.790Z,8.57
2018-04-07T14:34:57.229Z,8.52
2018-04-07T14:37:24.893Z,9.25
2018-04-07T14:39:52.597Z,9.37
2018-04-07T14:42:20.246Z,8.80
2018-04-07T14:44:47.934Z,8.53
2018-04-07T14:47:16.337Z,8.67
2018-04-07T14:49:43.998Z,8.13
2018-04-07T14:52:11.688Z,8.33
2018-04-07T14:54:39.347Z,7.63
2018-04-07T14:57:06.962Z,7.90
2018-04-07T14:59:35.354Z,7.37
2018-04-07T15:02:03.778Z,6.80
2018-04-07T15:04:31.391Z,7.07
2018-04-07T15:06:59.855Z,7.75
2018-04-07T15:09:28.234Z,7.30
2018-04-07T15:11:55.883Z,6.70
2018-04-07T15:14:23.542Z,6.93
2018-04-07T15:16:51.210Z,6.83
2018-04-07T15:19:18.943Z,6.30
2018-04-07T15:21:46.622Z,6.47
2018-04-07T15:24:14.244Z,6.63
2018-04-07T15:26:41.905Z,5.90
2018-04-07T15:29:09.524Z,5.77
2018-04-07T15:31:37.290Z,6.00
2018-04-07T15:34:04.967Z,5.33
2018-04-07T15:36:33.396Z,6.20
2018-04-07T15:39:01.164Z,5.40
2018-04-07T15:41:28.823Z,5.53
2018-04-07T15:43:56.434Z,4.78
2018-04-07T15:46:24.185Z,5.00
2018-04-07T15:48:53.338Z,5.03
2018-04-07T15:51:21.005Z,4.57
2018-04-07T15:53:48.672Z,5.10
2018-04-07T15:56:16.293Z,5.67
2018-04-07T15:58:44.672Z,4.87
2018-04-07T16:01:13.094Z,4.77
2018-04-07T16:03:41.743Z,4.27
2018-04-07T16:06:10.175Z,4.53
2018-04-07T16:08:37.857Z,4.23
2018-04-07T16:11:06.100Z,4.50
2018-04-07T16:13:33.743Z,4.40
2018-04-07T16:16:01.422Z,3.50
2018-04-07T16:18:29.529Z,3.57
2018-04-07T16:20:57.262Z,3.90
2018-04-07T16:23:26.202Z,3.70
2018-04-07T16:25:54.755Z,4.20
2018-04-07T16:28:23.218Z,4.30
2018-04-07T16:30:50.986Z,4.00
2018-04-07T16:33:18.638Z,3.70
2018-04-07T16:35:46.271Z,4.20
2018-04-07T16:38:13.895Z,3.63
2018-04-07T16:40:41.555Z,4.13
2018-04-07T16:43:09.180Z,3.43
2018-04-07T16:45:36.838Z,4.35
2018-04-07T16:48:04.455Z,3.60
2018-04-07T16:50:32.209Z,3.67
2018-04-07T16:52:59.820Z,3.80
2018-04-07T16:55:27.451Z,3.77
2018-04-07T16:57:56.144Z,4.20
2018-04-07T17:00:24.547Z,4.22
2018-04-07T17:02:52.226Z,4.30
2018-04-07T17:05:20.210Z,4.17
2018-04-07T17:07:47.862Z,4.13
2018-04-07T17:10:15.632Z,4.40
2018-04-07T17:12:43.984Z,4.30
2018-04-07T17:15:11.773Z,3.80
2018-04-07T17:17:39.537Z,4.20
2018-04-07T17:20:07.215Z,4.40
2018-04-07T17:22:34.870Z,4.17
2018-04-07T17:25:02.728Z,4.57
2018-04-07T17:27:30.463Z,4.17
2018-04-07T17:29:58.155Z,4.00
2018-04-07T17:32:25.798Z,4.40
2018-04-07T17:34:53.519Z,4.80
2018-04-07T17:37:21.652Z,4.72
2018-04-07T17:39:49.450Z,4.55
2018-04-07T17:42:17.173Z,4.57
2018-04-07T17:44:44.848Z,4.63
2018-04-07T17:47:12.626Z,4.78
2018-04-07T17:49:43.734Z,4.77
2018-04-07T17:52:08.875Z,4.93
2018-04-07T17:54:37.034Z,4.60
2018-04-07T17:57:04.716Z,4.70
2018-04-07T17:59:33.195Z,5.07
2018-04-07T18:02:00.895Z,4.87
2018-04-07T18:04:29.383Z,4.97
2018-04-07T18:06:58.025Z,5.10
2018-04-07T18:09:25.679Z,4.93
2018-04-07T18:11:55.787Z,4.47
2018-04-07T18:14:23.559Z,4.80
2018-04-07T18:16:51.332Z,5.40
2018-04-07T18:19:18.950Z,4.63
2018-04-07T18:21:46.666Z,4.77
2018-04-07T18:24:14.312Z,4.90
2018-04-07T18:26:41.927Z,5.63
2018-04-07T18:29:09.602Z,5.33
2018-04-07T18:31:37.223Z,5.20
2018-04-07T18:34:04.883Z,5.40
2018-04-07T18:36:32.552Z,5.73
2018-04-07T18:39:00.197Z,5.65
2018-04-07T18:41:27.816Z,5.67
2018-04-07T18:43:55.489Z,5.23
2018-04-07T18:46:23.115Z,5.93
2018-04-07T18:48:51.536Z,6.10
2018-04-07T18:51:19.190Z,5.80
2018-04-07T18:53:46.839Z,7.10
2018-04-07T18:56:14.507Z,6.27
2018-04-07T18:58:42.888Z,5.93
2018-04-07T19:01:10.580Z,5.53
2018-04-07T19:03:38.208Z,5.93
2018-04-07T19:06:05.896Z,6.00
2018-04-07T19:08:33.555Z,5.78
2018-04-07T19:11:01.180Z,6.17
2018-04-07T19:13:29.719Z,5.67
2018-04-07T19:15:57.366Z,5.63
2018-04-07T19:18:25.045Z,6.10
2018-04-07T19:20:52.669Z,5.93
2018-04-07T19:23:20.410Z,7.07
2018-04-07T19:25:48.844Z,6.30
2018-04-07T19:28:16.602Z,7.20
2018-04-07T19:30:44.393Z,7.00
2018-04-07T19:33:12.109Z,7.10
2018-04-07T19:35:39.801Z,7.13
2018-04-07T19:38:07.419Z,7.90
2018-04-07T19:40:35.047Z,7.50
2018-04-07T19:43:02.767Z,8.60
2018-04-07T19:45:30.442Z,7.97
2018-04-07T19:47:58.072Z,7.60
2018-04-07T19:50:25.751Z,7.53
2018-04-07T19:52:53.399Z,7.47
2018-04-07T19:55:21.044Z,8.13
2018-04-07T19:57:49.466Z,7.40
2018-04-07T20:00:17.127Z,7.40
2018-04-07T20:02:44.814Z,7.20
2018-04-07T20:05:12.490Z,7.13
2018-04-07T20:07:40.232Z,7.62
2018-04-07T20:10:08.290Z,7.53
2018-04-07T20:12:36.015Z,7.07
2018-04-07T20:15:04.455Z,7.23
2018-04-07T20:17:32.095Z,7.47
2018-04-07T20:20:00.705Z,6.90
2018-04-07T20:22:28.407Z,6.63
2018-04-07T20:24:57.040Z,6.57
2018-04-07T20:27:24.840Z,7.40
2018-04-07T20:29:53.233Z,7.40
2018-04-07T20:32:21.671Z,7.80
2018-04-07T20:34:49.290Z,8.10
2018-04-07T20:37:17.711Z,7.43
2018-04-07T20:39:45.458Z,7.70
2018-04-07T20:42:26.141Z,7.83
2018-04-07T20:44:53.820Z,7.90
2018-04-07T20:47:23.740Z,8.05
2018-04-07T20:49:51.363Z,8.70
2018-04-07T20:52:19.095Z,8.27
2018-04-07T20:54:47.137Z,8.45
2018-04-07T20:57:14.975Z,8.27
2018-04-07T20:59:42.641Z,8.70
2018-04-07T21:02:10.404Z,8.33
2018-04-07T21:04:38.073Z,9.13
2018-04-07T21:07:05.751Z,9.30
2018-04-07T21:09:33.493Z,8.83
2018-04-07T21:12:01.161Z,8.57
2018-04-07T21:14:28.817Z,8.50
2018-04-07T21:16:56.437Z,8.95
2018-04-07T21:19:24.866Z,9.10
2018-04-07T21:21:52.622Z,9.30
2018-04-07T21:24:20.387Z,8.60
2018-04-07T21:26:48.044Z,9.33
2018-04-07T21:29:15.701Z,9.07
2018-04-07T21:31:43.416Z,8.85
2018-04-07T21:34:11.870Z,9.33
2018-04-07T21:36:40.422Z,8.70
2018-04-07T21:39:08.055Z,8.63
2018-04-07T21:41:36.584Z,10.17
2018-04-07T21:44:04.282Z,8.23
2018-04-07T21:46:32.603Z,8.27
2018-04-07T21:49:00.219Z,8.73
2018-04-07T21:51:27.977Z,8.27
2018-04-07T21:53:55.965Z,8.27
2018-04-07T21:56:24.361Z,7.87
2018-04-07T21:58:52.739Z,7.93
2018-04-07T22:01:21.159Z,8.07
2018-04-07T22:03:48.770Z,8.47
2018-04-07T22:06:17.175Z,8.47
2018-04-07T22:08:45.070Z,7.67
2018-04-07T22:11:12.732Z,7.93
2018-04-07T22:13:40.361Z,7.67
2018-04-07T22:16:08.014Z,8.10
2018-04-07T22:18:36.436Z,8.37
2018-04-07T22:21:04.220Z,8.70
2018-04-07T22:23:32.070Z,7.90
2018-04-07T22:25:59.697Z,8.50
2018-04-07T22:28:28.012Z,7.93
2018-04-07T22:30:55.670Z,8.53
2018-04-07T22:33:23.378Z,8.10
2018-04-07T22:35:51.799Z,8.40
2018-04-07T22:38:19.455Z,8.10
2018-04-07T22:40:47.088Z,8.30
2018-04-07T22:43:15.505Z,8.00
2018-04-07T22:45:43.154Z,8.00
2018-04-07T22:48:10.838Z,7.23
2018-04-07T22:50:38.458Z,7.50
2018-04-07T22:53:06.847Z,7.73
2018-04-07T22:55:35.288Z,7.80
2018-04-07T22:58:03.738Z,7.70
2018-04-07T23:00:31.430Z,7.47
2018-04-07T23:02:59.072Z,7.35
2018-04-07T23:05:26.682Z,7.43
2018-04-07T23:07:55.123Z,7.93
2018-04-07T23:10:22.897Z,7.57
2018-04-07T23:12:50.539Z,7.73
2018-04-07T23:15:18.252Z,7.70
2018-04-07T23:17:46.692Z,7.47
2018-04-07T23:20:14.323Z,7.40
2018-04-07T23:22:41.951Z,7.27
2018-04-07T23:25:10.431Z,8.07
2018-04-07T23:27:38.879Z,8.13
2018-04-07T23:30:06.495Z,8.53
2018-04-07T23:32:34.396Z,7.53
2018-04-07T23:35:02.034Z,8.10
2018-04-07T23:37:29.653Z,7.83
2018-04-07T23:39:57.319Z,7.60
2018-04-07T23:42:24.963Z,8.48
2018-04-07T23:44:52.586Z,8.43
2018-04-07T23:47:20.274Z,7.60
2018-04-07T23:49:47.902Z,7.43
2018-04-07T23:52:15.523Z,8.03
2018-04-07T23:54:43.258Z,8.60
2018-04-07T23:57:10.875Z,8.47
2018-04-07T23:59:39.266Z,8.37
